Time;durP1;ratioP1;P1;durP2;ratioP2;P2;SDS_P1;SDS_P2;PMS_P1;PMS_P2;Temp;Humidity;BMP_temperature;BMP_pressure;BME280_temperature;BME280_humidity;BME280_pressure;Samples;Min_cycle;Max_cycle;Signal;HPM_P1;HPM_P2
2022/06/19 00:01:14;;;;;;;;;13.20;11.80;;;;;23.09;52.46;99102.53;5116780;28;9623;-65
2022/06/19 00:03:42;;;;;;;;;17.20;17.00;;;;;23.05;52.61;99101.31;5116132;28;8846;-67
2022/06/19 00:06:10;;;;;;;;;15.80;15.40;;;;;23.01;52.68;99100.09;5116348;28;8850;-62
2022/06/19 00:08:38;;;;;;;;;18.00;17.60;;;;;22.96;53.07;99097.22;5116338;28;8839;-62
2022/06/19 00:11:06;;;;;;;;;19.60;18.40;;;;;22.90;52.67;99098.94;5115515;28;8871;-63
2022/06/19 00:13:33;;;;;;;;;19.40;18.60;;;;;22.86;53.28;99091.47;5115555;28;8819;-62
2022/06/19 00:16:01;;;;;;;;;15.40;15.20;;;;;22.82;52.79;99090.22;5116173;28;8970;-65
2022/06/19 00:18:30;;;;;;;;;22.00;21.40;;;;;22.80;52.98;99089.63;5115930;28;8844;-62
2022/06/19 00:20:57;;;;;;;;;22.00;20.40;;;;;22.76;53.12;99082.97;5115224;28;8825;-62
2022/06/19 00:23:25;;;;;;;;;23.00;21.40;;;;;22.73;53.14;99075.25;5116425;28;8820;-63
2022/06/19 00:25:53;;;;;;;;;20.00;18.40;;;;;22.66;53.21;99064.47;5115929;28;8853;-62
2022/06/19 00:28:21;;;;;;;;;15.00;13.80;;;;;22.61;53.79;99056.13;5109855;28;8846;-62
2022/06/19 00:30:49;;;;;;;;;17.40;17.40;;;;;22.55;54.04;99048.06;5095527;28;8810;-62
2022/06/19 00:33:17;;;;;;;;;21.80;21.60;;;;;22.47;54.06;99043.69;5107040;28;8824;-62
2022/06/19 00:35:46;;;;;;;;;21.40;20.80;;;;;22.38;54.25;99038.75;5115420;28;9025;-62
2022/06/19 00:38:14;;;;;;;;;21.60;19.80;;;;;22.28;54.52;99032.94;5114803;28;8832;-62
2022/06/19 00:40:42;;;;;;;;;20.60;20.20;;;;;22.17;54.54;99022.81;5115138;28;9541;-62
2022/06/19 00:43:09;;;;;;;;;22.00;21.20;;;;;22.09;55.01;99018.47;5115826;28;8954;-62
2022/06/19 00:45:37;;;;;;;;;17.00;16.80;;;;;22.01;54.96;99016.00;5115580;28;8840;-62
2022/06/19 00:48:05;;;;;;;;;23.60;23.00;;;;;21.96;55.04;99005.00;5115456;28;8839;-63
2022/06/19 00:50:33;;;;;;;;;21.20;21.20;;;;;21.91;54.72;98993.97;5115863;28;8844;-62
2022/06/19 00:53:01;;;;;;;;;19.20;18.40;;;;;21.90;55.10;98988.75;5115975;28;8860;-62
2022/06/19 00:55:29;;;;;;;;;20.20;19.60;;;;;21.89;55.02;98989.78;5115278;28;9632;-62
2022/06/19 00:57:57;;;;;;;;;23.80;21.80;;;;;21.87;54.98;98981.06;5114270;28;8835;-62
2022/06/19 01:00:26;;;;;;;;;15.40;13.00;;;;;21.89;54.92;98989.78;5094800;28;8834;-62
2022/06/19 01:02:54;;;;;;;;;22.40;20.20;;;;;21.87;55.02;98989.19;5095042;28;8845;-62
2022/06/19 01:05:22;;;;;;;;;20.40;19.80;;;;;21.86;55.00;98996.47;5094594;28;8849;-62
2022/06/19 01:07:50;;;;;;;;;23.20;22.80;;;;;21.84;55.33;98993.16;5094695;28;8834;-62
2022/06/19 01:10:18;;;;;;;;;23.60;21.60;;;;;21.85;55.73;99000.25;5094758;28;8829;-62
2022/06/19 01:12:46;;;;;;;;;22.60;20.60;;;;;21.84;55.48;98995.03;5094918;28;8874;-62
2022/06/19 01:15:14;;;;;;;;;25.80;23.80;;;;;21.81;55.63;98992.75;5094535;28;8842;-62
2022/06/19 01:17:42;;;;;;;;;21.40;20.00;;;;;21.80;55.74;98983.78;5094263;28;9006;-63
2022/06/19 01:20:10;;;;;;;;;22.20;20.80;;;;;21.80;56.16;98977.53;5094438;28;8818;-64
2022/06/19 01:22:38;;;;;;;;;21.00;20.40;;;;;21.77;55.81;98977.97;5094354;28;8826;-62
2022/06/19 01:25:05;;;;;;;;;23.60;21.00;;;;;21.74;55.64;98979.25;5097237;28;8846;-62
2022/06/19 01:30:19;;;;;;;;;18.80;18.60;;;;;21.67;55.90;98964.06;5116363;28;8936;-63
2022/06/19 01:32:47;;;;;;;;;19.60;17.60;;;;;21.64;55.75;98961.75;5119337;28;8962;-62
2022/06/19 01:35:14;;;;;;;;;19.40;18.40;;;;;21.60;56.02;98979.47;5119801;28;8976;-67
2022/06/19 01:37:43;;;;;;;;;18.60;17.20;;;;;21.57;56.36;98971.78;5119797;28;8843;-63
2022/06/19 01:40:11;;;;;;;;;13.80;12.60;;;;;21.53;56.50;98975.97;5119772;28;8839;-63
2022/06/19 01:42:39;;;;;;;;;16.80;16.00;;;;;21.50;56.25;98969.09;5120045;28;8840;-64
2022/06/19 01:45:07;;;;;;;;;19.20;18.60;;;;;21.47;56.69;98976.81;5119306;28;8962;-67
2022/06/19 01:47:35;;;;;;;;;19.00;17.00;;;;;21.45;56.27;98970.78;5119450;28;8824;-63
2022/06/19 01:50:03;;;;;;;;;20.80;19.20;;;;;21.41;56.82;98981.22;5118939;28;9684;-63
2022/06/19 01:52:31;;;;;;;;;17.60;16.00;;;;;21.38;56.95;98970.81;5119588;28;8890;-63
2022/06/19 01:54:58;;;;;;;;;17.60;17.60;;;;;21.36;56.86;98974.78;5119058;28;8831;-63
2022/06/19 01:57:27;;;;;;;;;16.80;15.60;;;;;21.33;57.15;98975.22;5119204;28;8828;-63
2022/06/19 01:59:55;;;;;;;;;17.60;15.60;;;;;21.30;57.08;98964.81;5105181;28;8852;-63
2022/06/19 02:02:23;;;;;;;;;19.40;17.80;;;;;21.29;56.60;98971.28;5099314;28;8829;-64
2022/06/19 02:04:51;;;;;;;;;17.00;15.60;;;;;21.26;56.87;98969.00;5100161;28;9000;-63
2022/06/19 02:07:20;;;;;;;;;18.20;15.20;;;;;21.24;56.81;98965.66;5099082;28;8838;-66
2022/06/19 02:09:51;;;;;;;;;18.80;18.00;;;;;21.20;56.87;98957.13;5098719;28;8810;-63
2022/06/19 02:12:19;;;;;;;;;18.40;17.80;;;;;21.17;57.20;98954.00;5098687;28;8870;-63
2022/06/19 02:14:47;;;;;;;;;17.20;16.20;;;;;21.15;56.99;98950.69;5098839;28;8853;-63
2022/06/19 02:17:15;;;;;;;;;17.20;14.60;;;;;21.12;57.40;98941.09;5098896;28;8826;-63
2022/06/19 02:19:44;;;;;;;;;15.00;14.60;;;;;21.14;56.97;98932.78;5098541;28;8833;-63
2022/06/19 02:22:11;;;;;;;;;11.60;11.40;;;;;21.13;57.43;98929.25;5098859;28;8834;-63
2022/06/19 02:24:39;;;;;;;;;13.20;13.00;;;;;21.13;57.02;98923.00;5098323;28;8838;-63
2022/06/19 02:27:07;;;;;;;;;14.20;14.20;;;;;21.12;57.57;98921.34;5098520;28;8830;-63
2022/06/19 02:29:35;;;;;;;;;14.80;13.80;;;;;21.11;57.03;98920.50;5109719;28;8842;-63
2022/06/19 02:32:03;;;;;;;;;13.00;12.80;;;;;21.08;57.18;98904.69;5102620;28;8826;-63
2022/06/19 02:34:31;;;;;;;;;11.40;11.40;;;;;21.06;57.71;98900.53;5098013;28;8822;-63
2022/06/19 02:36:58;;;;;;;;;11.00;10.20;;;;;21.02;57.83;98899.31;5097847;28;8853;-63
2022/06/19 02:39:26;;;;;;;;;15.40;15.00;;;;;21.00;57.84;98912.19;5098358;28;8967;-64
2022/06/19 02:41:54;;;;;;;;;11.20;10.20;;;;;20.96;57.81;98910.97;5098030;28;8864;-63
2022/06/19 02:44:22;;;;;;;;;16.00;14.40;;;;;20.93;58.04;98908.69;5098204;28;8854;-64
2022/06/19 02:46:50;;;;;;;;;11.80;10.80;;;;;20.88;58.20;98903.09;5098317;28;8879;-64
2022/06/19 02:49:18;;;;;;;;;12.00;11.40;;;;;20.87;58.42;98900.59;5098184;28;8934;-63
2022/06/19 02:51:46;;;;;;;;;12.20;12.00;;;;;20.83;58.33;98898.28;5097916;28;8842;-63
2022/06/19 02:54:14;;;;;;;;;11.00;10.60;;;;;20.78;58.25;98897.25;5098028;28;8830;-63
2022/06/19 02:56:42;;;;;;;;;12.00;12.00;;;;;20.71;58.63;98891.00;5098405;28;8853;-63
2022/06/19 02:59:10;;;;;;;;;12.00;11.60;;;;;20.69;58.69;98895.00;5105281;28;8804;-63
2022/06/19 03:01:37;;;;;;;;;11.40;11.40;;;;;20.66;58.66;98898.94;5118199;28;8861;-64
2022/06/19 03:04:05;;;;;;;;;12.40;11.20;;;;;20.66;58.80;98909.78;5118449;28;8828;-63
2022/06/19 03:06:33;;;;;;;;;13.80;13.00;;;;;20.61;58.53;98896.03;5117592;28;8847;-63
2022/06/19 03:09:01;;;;;;;;;12.40;11.40;;;;;20.57;59.01;98894.81;5118454;28;8987;-63
2022/06/19 03:11:29;;;;;;;;;11.00;9.20;;;;;20.55;58.42;98891.47;5117928;28;8836;-63
2022/06/19 03:13:57;;;;;;;;;12.20;12.20;;;;;20.55;58.90;98905.00;5117923;28;8832;-64
2022/06/19 03:16:26;;;;;;;;;8.00;8.00;;;;;20.53;59.32;98898.13;5118525;28;8832;-64
2022/06/19 03:18:55;;;;;;;;;12.40;12.00;;;;;20.48;59.42;98920.41;5118224;28;8823;-64
2022/06/19 03:21:22;;;;;;;;;12.00;10.80;;;;;20.43;59.16;98925.63;5118385;28;8827;-63
2022/06/19 03:23:50;;;;;;;;;11.20;11.20;;;;;20.36;59.32;98921.25;5118182;28;9538;-63
2022/06/19 03:26:18;;;;;;;;;10.00;8.40;;;;;20.34;59.33;98913.31;5117679;28;8842;-63
2022/06/19 03:28:46;;;;;;;;;9.20;9.20;;;;;20.33;59.45;98897.34;5113628;28;8842;-63
2022/06/19 03:31:13;;;;;;;;;9.00;8.20;;;;;20.32;59.17;98896.47;5097859;28;8845;-64
2022/06/19 03:33:41;;;;;;;;;8.00;8.00;;;;;20.29;58.92;98899.63;5097604;28;9507;-63
2022/06/19 03:36:09;;;;;;;;;7.00;6.60;;;;;20.26;59.61;98908.13;5097329;28;8960;-63
2022/06/19 03:38:37;;;;;;;;;8.00;8.00;;;;;20.24;59.34;98914.81;5097509;28;8833;-63
2022/06/19 03:41:05;;;;;;;;;10.00;7.40;;;;;20.20;59.70;98933.31;5097436;28;8860;-63
2022/06/19 03:43:33;;;;;;;;;7.00;6.20;;;;;20.15;59.82;98965.56;5097366;28;8834;-63
2022/06/19 03:46:01;;;;;;;;;8.00;7.00;;;;;20.10;59.61;98957.22;5097163;28;8825;-63
2022/06/19 03:48:29;;;;;;;;;10.20;10.00;;;;;20.03;59.96;98947.41;5096392;28;8960;-63
2022/06/19 03:50:57;;;;;;;;;7.00;7.00;;;;;19.95;59.78;98961.94;5097156;28;8837;-63
2022/06/19 03:53:24;;;;;;;;;9.80;8.60;;;;;19.92;60.23;98962.38;5096972;28;8842;-63
2022/06/19 03:55:52;;;;;;;;;7.60;6.80;;;;;19.92;60.59;98970.47;5097050;28;8830;-63
2022/06/19 03:58:20;;;;;;;;;10.00;7.40;;;;;19.97;59.81;98972.56;5099639;28;8818;-63
2022/06/19 04:00:48;;;;;;;;;9.60;8.00;;;;;19.97;59.77;98959.91;5116433;28;8831;-64
2022/06/19 04:03:16;;;;;;;;;7.60;7.00;;;;;19.99;59.57;98976.72;5115757;28;8832;-63
2022/06/19 04:05:44;;;;;;;;;5.00;5.00;;;;;20.00;60.34;99005.41;5116661;28;8847;-68
2022/06/19 04:08:12;;;;;;;;;11.20;7.40;;;;;20.00;59.90;99008.13;5117427;28;8827;-63
2022/06/19 04:10:39;;;;;;;;;5.00;5.00;;;;;20.00;59.70;98989.19;5116995;28;8836;-63
2022/06/19 04:13:07;;;;;;;;;7.00;6.20;;;;;20.01;59.58;99049.53;5116812;28;8843;-63
2022/06/19 04:15:35;;;;;;;;;1.00;1.00;;;;;19.97;60.05;99045.53;5116470;28;8851;-63
2022/06/19 04:18:03;;;;;;;;;4.00;4.00;;;;;19.90;59.59;99053.63;5116775;28;8824;-63
2022/06/19 04:20:33;;;;;;;;;7.00;5.00;;;;;19.86;59.75;99062.38;5117153;28;9560;-63
2022/06/19 04:23:01;;;;;;;;;0.00;0.00;;;;;19.84;60.28;99065.25;5117146;28;8854;-62
2022/06/19 04:25:29;;;;;;;;;4.40;4.00;;;;;19.85;59.95;99080.44;5116516;28;8863;-63
2022/06/19 04:27:57;;;;;;;;;3.60;2.40;;;;;19.84;59.97;99070.66;5116496;28;8844;-62
2022/06/19 04:30:25;;;;;;;;;6.20;5.80;;;;;19.82;59.99;99077.28;5116014;28;8899;-63
2022/06/19 04:32:53;;;;;;;;;8.20;5.40;;;;;19.85;59.79;99071.47;5116610;28;8828;-63
2022/06/19 04:35:20;;;;;;;;;5.60;5.20;;;;;19.89;60.27;99073.56;5116815;28;8844;-62
2022/06/19 04:37:49;;;;;;;;;4.40;4.00;;;;;19.94;59.94;99060.28;5116685;28;8856;-63
2022/06/19 04:40:18;;;;;;;;;4.60;4.00;;;;;20.01;60.11;99061.16;5116867;28;8844;-63
2022/06/19 04:42:46;;;;;;;;;7.40;5.40;;;;;20.08;59.93;99110.69;5116432;28;8864;-63
2022/06/19 04:45:13;;;;;;;;;4.60;4.60;;;;;20.12;59.94;99114.69;5116034;28;8967;-63
2022/06/19 04:47:41;;;;;;;;;2.80;2.80;;;;;20.04;59.88;99122.09;5116445;28;8844;-63
2022/06/19 04:50:09;;;;;;;;;4.40;4.00;;;;;19.94;60.13;99103.53;5116565;28;8968;-63
2022/06/19 04:52:37;;;;;;;;;2.00;2.00;;;;;19.90;60.10;99126.63;5116322;28;8843;-63
2022/06/19 04:55:05;;;;;;;;;4.00;4.00;;;;;19.85;60.82;99125.53;5116456;28;8989;-62
2022/06/19 04:57:32;;;;;;;;;2.80;2.00;;;;;19.80;60.57;99138.81;5115927;28;8820;-62
2022/06/19 05:00:01;;;;;;;;;3.20;2.40;;;;;19.74;60.70;99139.63;5096232;28;8818;-63
2022/06/19 05:02:29;;;;;;;;;3.20;2.40;;;;;19.67;61.12;99141.44;5095599;28;8972;-63
2022/06/19 05:04:57;;;;;;;;;5.00;4.20;;;;;19.71;60.91;99143.56;5095876;28;8815;-63
2022/06/19 05:07:24;;;;;;;;;1.60;1.00;;;;;19.70;60.64;99116.72;5095744;28;8852;-63
2022/06/19 05:09:53;;;;;;;;;1.80;0.80;;;;;19.71;60.88;99132.75;5095424;28;8842;-63
2022/06/19 05:12:21;;;;;;;;;4.40;4.20;;;;;19.77;60.46;99123.00;5095490;28;8969;-63
2022/06/19 05:14:49;;;;;;;;;4.60;4.00;;;;;19.87;59.71;99135.09;5095425;28;8842;-63
2022/06/19 05:17:17;;;;;;;;;4.00;4.00;;;;;19.98;59.56;99148.06;5095664;28;8855;-63
2022/06/19 05:19:45;;;;;;;;;4.00;4.00;;;;;20.06;59.71;99156.03;5095101;28;8846;-63
2022/06/19 05:22:13;;;;;;;;;2.00;2.00;;;;;20.11;59.53;99160.84;5094693;28;8826;-63
2022/06/19 05:24:41;;;;;;;;;2.00;2.00;;;;;20.06;59.52;99142.53;5095050;28;8829;-63
2022/06/19 05:27:09;;;;;;;;;4.20;4.20;;;;;20.06;59.57;99117.34;5095393;28;8840;-63
2022/06/19 05:29:38;;;;;;;;;1.00;1.00;;;;;20.13;59.40;99120.91;5110771;28;8816;-63
2022/06/19 05:32:05;;;;;;;;;4.00;4.00;;;;;20.12;59.15;99113.84;5116066;28;8839;-64
2022/06/19 05:34:33;;;;;;;;;1.80;1.80;;;;;20.10;58.88;99097.81;5115753;28;8828;-64
2022/06/19 05:37:01;;;;;;;;;1.80;1.80;;;;;20.05;59.15;99100.31;5115284;28;8967;-63
2022/06/19 05:39:29;;;;;;;;;1.60;1.00;;;;;20.08;58.87;99099.03;5115469;28;8836;-63
2022/06/19 05:41:58;;;;;;;;;4.00;3.60;;;;;20.16;58.63;99105.13;5115485;28;8855;-64
2022/06/19 05:44:25;;;;;;;;;3.60;2.00;;;;;20.20;58.40;99114.50;5110228;28;8814;-63
2022/06/19 05:46:54;;;;;;;;;4.20;2.80;;;;;20.24;57.75;99123.84;5094269;28;8834;-63
2022/06/19 05:49:22;;;;;;;;;2.40;1.60;;;;;20.29;58.00;99134.91;5094084;28;8822;-66
2022/06/19 05:51:50;;;;;;;;;2.00;2.00;;;;;20.32;57.85;99148.00;5094090;28;8850;-63
2022/06/19 05:54:18;;;;;;;;;2.00;2.00;;;;;20.37;57.62;99137.44;5094391;28;8865;-68
2022/06/19 05:56:45;;;;;;;;;1.20;1.20;;;;;20.40;57.88;99176.78;5093536;28;8849;-63
2022/06/19 05:59:14;;;;;;;;;2.80;2.00;;;;;20.36;58.09;99162.81;5093358;28;8838;-62
2022/06/19 06:01:41;;;;;;;;;1.80;1.80;;;;;20.35;57.68;99128.69;5093399;28;8834;-63
2022/06/19 06:04:09;;;;;;;;;1.40;1.40;;;;;20.36;57.60;99152.00;5093635;28;8840;-63
2022/06/19 06:06:37;;;;;;;;;3.20;3.20;;;;;20.34;57.37;99153.22;5093640;28;8842;-62
2022/06/19 06:09:05;;;;;;;;;2.00;2.00;;;;;20.37;57.44;99167.19;5094346;28;8870;-63
2022/06/19 06:11:33;;;;;;;;;2.00;2.00;;;;;20.40;57.00;99163.25;5097778;28;8865;-63
2022/06/19 06:14:00;;;;;;;;;1.00;1.00;;;;;20.42;57.33;99180.94;5098393;28;8924;-64
2022/06/19 06:16:28;;;;;;;;;2.00;1.60;;;;;20.47;56.98;99174.91;5117745;28;8832;-62
2022/06/19 06:18:56;;;;;;;;;1.00;1.00;;;;;20.50;56.72;99167.22;5117771;28;8819;-63
2022/06/19 06:21:24;;;;;;;;;1.60;1.00;;;;;20.57;56.35;99161.81;5117445;28;8832;-63
2022/06/19 06:23:52;;;;;;;;;2.00;2.00;;;;;20.63;56.55;99159.13;5117254;28;8824;-63
2022/06/19 06:26:19;;;;;;;;;2.00;2.00;;;;;20.72;56.36;99143.53;5116736;28;8844;-63
2022/06/19 06:28:48;;;;;;;;;2.80;2.40;;;;;20.82;55.64;99133.97;5117670;28;8867;-62
2022/06/19 06:31:16;;;;;;;;;2.40;2.00;;;;;20.92;56.03;99095.72;5118442;28;8897;-63
2022/06/19 06:33:44;;;;;;;;;4.00;3.20;;;;;20.98;55.54;99049.69;5118626;28;8889;-62
2022/06/19 06:36:12;;;;;;;;;4.00;2.00;;;;;20.98;55.22;99034.28;5118412;28;8851;-63
2022/06/19 06:38:40;;;;;;;;;2.00;2.00;;;;;20.99;55.19;99067.56;5118185;28;8828;-65
2022/06/19 06:41:08;;;;;;;;;2.00;2.00;;;;;20.98;55.27;99077.59;5118352;28;8856;-63
2022/06/19 06:43:36;;;;;;;;;3.20;2.00;;;;;21.01;55.19;99055.50;5109689;28;8810;-63
2022/06/19 06:46:03;;;;;;;;;3.60;3.20;;;;;21.07;54.96;99049.25;5098138;28;9499;-63
2022/06/19 06:48:32;;;;;;;;;4.20;4.00;;;;;21.14;54.79;99060.06;5098306;28;8960;-62
2022/06/19 06:51:00;;;;;;;;;2.80;2.40;;;;;21.20;54.96;99053.81;5097210;28;8842;-63
2022/06/19 06:53:27;;;;;;;;;2.40;2.00;;;;;21.26;54.48;99044.84;5096675;28;9507;-63
2022/06/19 06:55:55;;;;;;;;;1.00;1.00;;;;;21.34;54.69;99039.19;5097223;28;9070;-63
2022/06/19 06:58:23;;;;;;;;;2.00;2.00;;;;;21.38;54.29;99043.13;5106129;28;8828;-63
2022/06/19 07:00:51;;;;;;;;;5.40;3.60;;;;;21.37;54.66;99030.63;5117178;28;8855;-62
2022/06/19 07:03:19;;;;;;;;;2.80;2.80;;;;;21.44;54.45;99034.16;5117662;28;8843;-62
2022/06/19 07:05:47;;;;;;;;;4.20;2.00;;;;;21.49;54.04;99015.41;5117799;28;8834;-62
2022/06/19 07:08:15;;;;;;;;;1.80;1.80;;;;;21.48;54.10;99024.56;5118484;28;8949;-62
2022/06/19 07:10:43;;;;;;;;;1.60;1.00;;;;;21.55;53.99;99036.22;5117917;28;8828;-62
2022/06/19 07:13:10;;;;;;;;;4.00;4.00;;;;;21.66;53.95;99032.88;5117531;28;8812;-62
2022/06/19 07:15:38;;;;;;;;;4.00;4.00;;;;;21.76;53.36;99046.78;5117960;28;8842;-62
2022/06/19 07:18:09;;;;;;;;;2.00;2.00;;;;;21.84;53.64;99054.66;5118147;28;8835;-62
2022/06/19 07:20:37;;;;;;;;;5.00;2.00;;;;;21.96;53.39;99045.69;5117802;28;8928;-63
2022/06/19 07:23:05;;;;;;;;;4.00;3.20;;;;;22.10;52.75;99030.16;5117523;28;8824;-62
2022/06/19 07:25:33;;;;;;;;;3.60;2.80;;;;;22.20;52.42;99035.94;5117797;28;8816;-62
2022/06/19 07:28:01;;;;;;;;;4.00;3.00;;;;;22.21;52.99;99064.72;5111738;28;8826;-63
2022/06/19 07:30:28;;;;;;;;;2.40;2.40;;;;;22.27;52.81;99093.69;5097286;28;8896;-63
2022/06/19 07:32:56;;;;;;;;;4.00;4.00;;;;;22.39;52.12;99090.06;5097344;28;8964;-62
2022/06/19 07:35:24;;;;;;;;;5.60;5.60;;;;;22.45;51.80;99093.81;5097804;28;8830;-62
2022/06/19 07:37:52;;;;;;;;;4.60;4.60;;;;;22.43;52.35;99104.06;5096974;28;8834;-62
2022/06/19 07:40:20;;;;;;;;;4.00;2.80;;;;;22.44;52.27;99111.16;5096352;28;8846;-62
2022/06/19 07:42:48;;;;;;;;;4.80;4.80;;;;;22.46;52.46;99134.31;5095865;28;9600;-63
2022/06/19 07:45:16;;;;;;;;;2.40;2.40;;;;;22.47;52.15;99146.84;5095771;28;8840;-62
2022/06/19 07:50:32;;;;;;;;;4.00;4.00;;;;;22.54;52.40;99165.81;5054742;28;8861;-62
2022/06/19 07:53:00;;;;;;;;;4.20;4.00;;;;;22.56;51.71;99169.13;5096099;28;8966;-62
2022/06/19 07:55:28;;;;;;;;;4.00;4.00;;;;;22.61;51.65;99199.19;5095896;28;8846;-63
2022/06/19 07:57:56;;;;;;;;;4.80;4.80;;;;;22.62;52.25;99228.00;5099723;28;9497;-62
2022/06/19 08:00:24;;;;;;;;;4.00;4.00;;;;;22.63;51.65;99275.81;5115743;28;8967;-62
2022/06/19 08:02:52;;;;;;;;;4.00;4.00;;;;;22.67;51.97;99293.34;5115090;28;8840;-63
2022/06/19 08:05:19;;;;;;;;;5.00;4.00;;;;;22.61;52.07;99305.88;5115474;28;8851;-62
2022/06/19 08:07:50;;;;;;;;;1.40;1.00;;;;;22.51;52.03;99310.09;5115648;28;8823;-63
2022/06/19 08:10:20;;;;;;;;;4.20;3.20;;;;;22.48;52.21;99318.69;5116377;28;8839;-63
2022/06/19 08:12:48;;;;;;;;;4.20;4.00;;;;;22.51;52.37;99315.53;5115660;28;8848;-62
2022/06/19 08:15:16;;;;;;;;;3.20;3.20;;;;;22.62;52.16;99328.44;5115402;28;8836;-62
2022/06/19 08:17:43;;;;;;;;;2.80;2.80;;;;;22.69;52.15;99345.56;5115804;28;8820;-63
2022/06/19 08:20:12;;;;;;;;;4.00;4.00;;;;;22.75;51.99;99345.53;5115767;28;8836;-63
2022/06/19 08:22:39;;;;;;;;;4.00;2.40;;;;;22.76;51.74;99314.59;5115550;28;8870;-62
2022/06/19 08:25:07;;;;;;;;;4.00;2.80;;;;;22.75;51.85;99331.94;5115551;28;8838;-64
2022/06/19 08:27:35;;;;;;;;;3.60;2.40;;;;;22.74;51.79;99326.72;5114583;28;8874;-64
2022/06/19 08:30:03;;;;;;;;;3.60;3.20;;;;;22.76;51.24;99346.38;5114909;28;8835;-63
2022/06/19 08:32:31;;;;;;;;;2.00;2.00;;;;;22.85;51.51;99326.06;5116078;28;8828;-63
2022/06/19 08:34:58;;;;;;;;;3.20;2.00;;;;;22.99;51.43;99297.81;5116118;28;8831;-64
2022/06/19 08:37:26;;;;;;;;;4.00;4.00;;;;;23.05;50.88;99305.91;5116141;28;8823;-63
2022/06/19 08:39:54;;;;;;;;;4.40;3.20;;;;;23.12;50.85;99330.31;5116446;28;8816;-63
2022/06/19 08:42:22;;;;;;;;;2.00;0.80;;;;;23.30;50.27;99335.91;5115756;28;8852;-67
2022/06/19 08:44:50;;;;;;;;;5.00;5.00;;;;;23.38;50.67;99322.88;5116087;28;9005;-64
2022/06/19 08:47:18;;;;;;;;;4.80;2.60;;;;;23.51;49.97;99320.09;5116227;28;8832;-64
2022/06/19 08:49:47;;;;;;;;;5.80;4.20;;;;;23.71;49.32;99339.81;5108426;28;8814;-63
2022/06/19 08:52:14;;;;;;;;;4.60;4.60;;;;;23.89;49.16;99328.22;5094853;28;8830;-63
2022/06/19 08:54:42;;;;;;;;;2.40;2.40;;;;;24.06;49.01;99315.72;5095698;28;9613;-63
2022/06/19 08:57:10;;;;;;;;;2.00;2.00;;;;;24.14;48.35;99316.28;5100655;28;8882;-64
2022/06/19 08:59:39;;;;;;;;;2.40;2.40;;;;;24.19;48.43;99318.31;5115459;28;8840;-64
2022/06/19 09:02:07;;;;;;;;;2.40;2.00;;;;;24.23;48.67;99325.81;5115422;28;9604;-64
2022/06/19 09:07:26;;;;;;;;;3.20;2.60;;;;;24.46;47.95;99322.41;5115416;28;8851;-63
2022/06/19 09:09:55;;;;;;;;;3.00;3.00;;;;;24.66;47.31;99333.97;5115140;28;8977;-64
2022/06/19 09:12:23;;;;;;;;;5.00;4.20;;;;;24.79;47.04;99350.19;5115373;28;8844;-63
2022/06/19 09:14:51;;;;;;;;;3.00;3.00;;;;;24.81;47.15;99358.94;5115179;28;8839;-63
2022/06/19 09:17:18;;;;;;;;;2.60;2.00;;;;;24.70;47.73;99355.09;5115269;28;8840;-63
2022/06/19 09:19:48;;;;;;;;;1.80;1.60;;;;;24.65;47.61;99345.94;5116054;28;8824;-63
2022/06/19 09:22:16;;;;;;;;;2.80;2.80;;;;;24.77;47.55;99341.38;5115619;28;8969;-63
2022/06/19 09:24:44;;;;;;;;;5.00;5.00;;;;;24.88;47.08;99343.34;5115987;28;8844;-63
2022/06/19 09:27:12;;;;;;;;;6.00;5.40;;;;;24.98;47.21;99339.03;5100891;28;9527;-63
2022/06/19 09:29:40;;;;;;;;;5.40;5.00;;;;;25.12;47.06;99342.41;5095207;28;8961;-63
2022/06/19 09:32:07;;;;;;;;;5.40;4.60;;;;;25.34;46.51;99357.25;5094615;28;8822;-63
2022/06/19 09:34:38;;;;;;;;;4.60;4.20;;;;;25.40;46.45;99338.06;5094254;28;8849;-63
2022/06/19 09:37:06;;;;;;;;;1.20;1.00;;;;;25.50;46.39;99319.25;5094459;28;8837;-63
2022/06/19 09:39:34;;;;;;;;;3.00;3.00;;;;;25.64;46.17;99318.81;5093740;28;8818;-63
2022/06/19 09:42:02;;;;;;;;;4.00;3.20;;;;;25.89;45.42;99308.56;5094562;28;8842;-64
2022/06/19 09:44:30;;;;;;;;;4.00;3.40;;;;;26.12;45.04;99300.41;5094250;28;8918;-63
2022/06/19 09:46:58;;;;;;;;;2.60;2.00;;;;;26.14;44.80;99309.19;5097428;28;8826;-64
2022/06/19 09:49:26;;;;;;;;;2.20;1.80;;;;;26.09;45.52;99325.44;5098299;28;8930;-63
2022/06/19 09:51:54;;;;;;;;;6.00;6.00;;;;;25.87;45.53;99316.13;5098948;28;8837;-64
2022/06/19 09:54:21;;;;;;;;;6.00;5.40;;;;;25.64;46.46;99316.09;5098956;28;8829;-63
2022/06/19 09:56:50;;;;;;;;;6.20;5.00;;;;;25.42;46.62;99300.50;5109017;28;8820;-63
2022/06/19 09:59:18;;;;;;;;;6.00;5.40;;;;;25.30;46.61;99296.06;5119005;28;8862;-63
2022/06/19 10:01:46;;;;;;;;;4.00;4.00;;;;;25.29;47.07;99297.13;5119260;28;9489;-63
2022/06/19 10:04:14;;;;;;;;;5.20;5.20;;;;;25.32;47.11;99288.50;5119046;28;8836;-63
2022/06/19 10:06:42;;;;;;;;;4.80;4.80;;;;;25.37;46.90;99277.69;5118551;28;8843;-64
2022/06/19 10:09:10;;;;;;;;;3.00;3.00;;;;;25.40;46.83;99277.25;5117379;28;8836;-63
2022/06/19 10:11:38;;;;;;;;;3.00;2.00;;;;;25.42;46.56;99272.38;5117321;28;9012;-63
2022/06/19 10:14:06;;;;;;;;;3.80;2.60;;;;;25.37;47.07;99280.44;5117857;28;8924;-67
2022/06/19 10:16:34;;;;;;;;;2.20;2.20;;;;;25.30;46.96;99294.16;5116922;28;8848;-63
2022/06/19 10:19:02;;;;;;;;;4.60;3.40;;;;;25.22;47.08;99283.59;5117636;28;8828;-64
2022/06/19 10:24:16;;;;;;;;;2.00;2.00;;;;;25.31;46.58;99279.47;5119319;28;8839;-63
2022/06/19 10:26:44;;;;;;;;;4.80;4.80;;;;;25.60;46.59;99260.31;5109289;28;8845;-63
2022/06/19 10:29:11;;;;;;;;;2.00;1.40;;;;;25.95;45.69;99260.41;5098067;28;8841;-64
2022/06/19 10:31:40;;;;;;;;;5.20;4.00;;;;;26.25;44.64;99240.09;5098189;28;8830;-64
2022/06/19 10:34:08;;;;;;;;;3.60;3.60;;;;;26.47;44.36;99221.16;5097494;28;8860;-64
2022/06/19 10:36:36;;;;;;;;;6.20;6.20;;;;;26.62;44.30;99222.34;5098245;28;8844;-64
2022/06/19 10:39:12;;;;;;;;;4.40;4.20;;;;;26.83;44.11;99210.75;5098678;28;9487;-64
2022/06/19 10:44:25;;;;;;;;;3.80;3.60;;;;;27.66;43.37;99173.41;5097002;28;9641;-64
2022/06/19 10:46:53;;;;;;;;;3.20;2.60;;;;;27.87;42.57;99191.00;5096314;28;8931;-69
2022/06/19 10:49:21;;;;;;;;;4.00;3.20;;;;;27.96;42.80;99181.28;5097246;28;8865;-65
2022/06/19 10:51:49;;;;;;;;;4.00;4.00;;;;;27.72;42.83;99188.00;5097948;28;8981;-64
2022/06/19 10:54:17;;;;;;;;;4.60;3.40;;;;;27.20;44.15;99197.53;5097404;28;8915;-64
2022/06/19 10:56:45;;;;;;;;;6.20;6.00;;;;;26.64;45.08;99127.28;5106426;28;8832;-64
2022/06/19 10:59:13;;;;;;;;;6.60;5.60;;;;;26.13;45.79;99085.56;5117738;28;8881;-64
2022/06/19 11:04:30;;;;;;;;;6.00;4.80;;;;;25.70;46.70;99023.22;5104339;28;9536;-64
2022/06/19 11:06:58;;;;;;;;;7.40;7.00;;;;;25.68;46.78;99028.09;5098964;28;8969;-64
2022/06/19 11:09:26;;;;;;;;;7.40;7.00;;;;;25.67;46.70;99029.16;5098903;28;8915;-64
2022/06/19 11:11:54;;;;;;;;;6.40;6.20;;;;;25.83;46.48;99058.44;5098635;28;8984;-65
2022/06/19 11:14:22;;;;;;;;;6.00;6.00;;;;;26.18;46.24;99056.44;5098405;28;8966;-65
2022/06/19 11:16:50;;;;;;;;;6.00;4.20;;;;;26.52;45.19;99041.00;5098000;28;8869;-66
2022/06/19 11:19:18;;;;;;;;;4.80;4.80;;;;;26.83;45.13;99046.75;5097952;28;8866;-66
2022/06/19 11:21:46;;;;;;;;;5.60;4.80;;;;;27.15;44.30;99061.53;5098248;28;8843;-66
2022/06/19 11:24:14;;;;;;;;;3.80;3.60;;;;;27.15;44.29;99068.91;5098473;28;8831;-64
2022/06/19 11:26:42;;;;;;;;;3.00;3.00;;;;;27.01;44.78;99076.56;5089695;28;8868;-65
2022/06/19 11:29:10;;;;;;;;;3.60;3.60;;;;;26.97;44.44;99080.91;5078228;28;8988;-64
2022/06/19 11:31:37;;;;;;;;;6.40;6.40;;;;;27.04;44.42;99087.03;5087873;28;8836;-64
2022/06/19 11:34:43;;;;;;;;;5.80;3.60;;;;;27.17;44.70;99122.25;5096215;28;8976;-64
2022/06/19 11:37:03;;;;;;;;;6.20;6.00;;;;;27.72;43.35;99123.16;5096384;28;8888;-64
2022/06/19 11:39:30;;;;;;;;;4.00;4.00;;;;;28.56;41.95;99139.09;5096221;28;8836;-64
2022/06/19 11:41:58;;;;;;;;;4.60;4.00;;;;;29.36;40.86;99161.03;5103131;28;8985;-65
2022/06/19 11:44:26;;;;;;;;;4.40;4.40;;;;;30.02;40.09;99177.75;5117520;28;8828;-64
2022/06/19 11:46:54;;;;;;;;;4.60;4.00;;;;;30.54;38.99;99173.09;5117214;28;8828;-66
2022/06/19 11:49:22;;;;;;;;;6.00;5.00;;;;;30.51;39.50;99175.56;5116657;28;8828;-64
2022/06/19 11:51:50;;;;;;;;;5.00;5.00;;;;;30.39;40.09;99170.28;5116433;28;8958;-64
2022/06/19 11:54:17;;;;;;;;;4.20;4.00;;;;;30.43;39.93;99154.94;5115510;28;8832;-65
2022/06/19 11:56:45;;;;;;;;;6.60;5.60;;;;;30.78;39.28;99144.88;5114422;28;8865;-65